Time;durP1;ratioP1;P1;durP2;ratioP2;P2;SDS_P1;SDS_P2;PMS_P1;PMS_P2;Temp;Humidity;BMP_temperature;BMP_pressure;BME280_temperature;BME280_humidity;BME280_pressure;Samples;Min_cycle;Max_cycle;Signal;HPM_P1;HPM_P2
2022/05/15 00:02:09;;;;;;;14.23;5.87;;;11.00;92.10;;;;;;5078818;28;20776;-65
2022/05/15 00:04:36;;;;;;;11.83;5.20;;;11.00;59.50;;;;;;5094588;28;20205;-65
2022/05/15 00:07:03;;;;;;;12.53;5.03;;;10.90;69.70;;;;;;5067597;28;20206;-65
2022/05/15 00:09:30;;;;;;;14.90;5.40;;;11.00;75.10;;;;;;5053660;28;20233;-65
2022/05/15 00:11:58;;;;;;;14.40;5.63;;;11.00;59.20;;;;;;5066385;28;20202;-65
2022/05/15 00:14:26;;;;;;;14.20;4.87;;;10.90;49.20;;;;;;5065914;28;20207;-65
2022/05/15 00:16:53;;;;;;;9.77;4.60;;;11.00;85.90;;;;;;5073223;28;20225;-65
2022/05/15 00:19:20;;;;;;;14.80;4.77;;;10.90;64.00;;;;;;5091909;28;20197;-65
2022/05/15 00:21:46;;;;;;;13.23;5.10;;;10.80;43.40;;;;;;5068180;28;20595;-65
2022/05/15 00:24:13;;;;;;;11.77;4.67;;;10.70;85.70;;;;;;5088979;28;20197;-65
2022/05/15 00:26:40;;;;;;;13.70;5.20;;;10.60;99.90;;;;;;5077844;28;20210;-65
2022/05/15 00:29:08;;;;;;;14.27;5.10;;;10.50;99.90;;;;;;5053574;28;20207;-65
2022/05/15 00:31:35;;;;;;;16.13;5.43;;;10.60;99.90;;;;;;5088398;28;20644;-65
2022/05/15 00:34:02;;;;;;;14.63;5.23;;;10.50;99.90;;;;;;5083094;28;20233;-65
2022/05/15 00:36:29;;;;;;;11.87;4.63;;;10.50;99.90;;;;;;5084999;28;20209;-65
2022/05/15 00:38:58;;;;;;;12.83;4.63;;;10.40;99.90;;;;;;5094074;28;20568;-65
2022/05/15 00:41:25;;;;;;;12.17;4.70;;;10.20;99.90;;;;;;5078250;28;20640;-65
2022/05/15 00:43:53;;;;;;;14.17;5.40;;;10.10;99.90;;;;;;5071233;28;20210;-65
2022/05/15 00:46:23;;;;;;;14.53;5.13;;;9.90;99.90;;;;;;5085577;28;20305;-65
2022/05/15 00:48:52;;;;;;;13.17;4.87;;;10.00;99.90;;;;;;5084400;28;20203;-65
2022/05/15 00:51:22;;;;;;;11.63;4.50;;;9.90;99.90;;;;;;5056126;28;20218;-65
2022/05/15 00:53:53;;;;;;;10.17;4.73;;;9.90;99.90;;;;;;5088152;28;20190;-65
2022/05/15 00:56:22;;;;;;;14.03;4.40;;;10.00;99.90;;;;;;5077087;28;20209;-65
2022/05/15 00:58:55;;;;;;;13.50;4.67;;;9.70;99.90;;;;;;5093141;28;20204;-65
2022/05/15 01:01:23;;;;;;;11.83;5.60;;;9.60;99.90;;;;;;5077452;28;20219;-65
2022/05/15 01:03:50;;;;;;;13.67;5.30;;;9.70;99.90;;;;;;5090161;28;20194;-65
2022/05/15 01:06:18;;;;;;;16.77;5.57;;;9.70;99.90;;;;;;5083401;28;20202;-65
2022/05/15 01:08:45;;;;;;;14.73;5.63;;;9.70;99.90;;;;;;5069740;28;20584;-65
2022/05/15 01:11:17;;;;;;;10.97;5.33;;;9.90;99.90;;;;;;5056505;28;20195;-65
2022/05/15 01:13:45;;;;;;;11.23;5.97;;;9.80;99.90;;;;;;5061074;28;20210;-65
2022/05/15 01:16:13;;;;;;;15.17;5.43;;;9.80;99.90;;;;;;5054730;28;20207;-65
2022/05/15 01:18:44;;;;;;;10.50;4.97;;;9.80;99.90;;;;;;5090490;28;20195;-65
2022/05/15 01:21:26;;;;;;;11.90;4.63;;;9.50;99.90;;;;;;5077318;28;20688;-65
2022/05/15 01:23:53;;;;;;;12.10;4.97;;;9.20;99.90;;;;;;5071923;28;20202;-65
2022/05/15 01:26:20;;;;;;;13.30;4.83;;;9.30;99.90;;;;;;5086407;28;20201;-65
2022/05/15 01:28:47;;;;;;;11.60;5.50;;;9.40;99.90;;;;;;5086306;28;20199;-65
2022/05/15 01:31:15;;;;;;;11.80;4.93;;;9.40;99.90;;;;;;5077535;28;20196;-66
2022/05/15 01:33:42;;;;;;;13.67;5.80;;;9.50;99.90;;;;;;5092233;28;20206;-64
2022/05/15 01:36:09;;;;;;;15.27;5.50;;;9.60;99.90;;;;;;5081206;28;20212;-65
2022/05/15 01:38:37;;;;;;;11.43;4.80;;;9.60;99.90;;;;;;5054279;28;20585;-65
2022/05/15 01:41:06;;;;;;;12.47;5.67;;;9.60;99.90;;;;;;5068228;28;20203;-65
2022/05/15 01:43:32;;;;;;;16.90;7.30;;;9.50;99.90;;;;;;5071053;28;20289;-65
2022/05/15 01:45:59;;;;;;;17.10;7.40;;;9.50;99.90;;;;;;5085132;28;20198;-65
2022/05/15 01:48:27;;;;;;;20.97;8.20;;;9.50;99.90;;;;;;5089956;28;20197;-65
2022/05/15 01:50:54;;;;;;;13.97;5.97;;;9.60;99.90;;;;;;5086109;28;20702;-65
2022/05/15 01:53:21;;;;;;;17.23;6.23;;;9.40;99.90;;;;;;5074545;28;20208;-65
2022/05/15 01:55:50;;;;;;;14.80;5.47;;;9.10;99.90;;;;;;5085099;28;20205;-65
2022/05/15 01:58:17;;;;;;;10.70;4.93;;;8.90;99.90;;;;;;5055583;28;20301;-65
2022/05/15 02:00:44;;;;;;;16.17;5.30;;;8.90;99.90;;;;;;5075266;28;20198;-65
2022/05/15 02:03:10;;;;;;;13.27;5.77;;;8.90;99.90;;;;;;5073024;28;20285;-65
2022/05/15 02:05:37;;;;;;;14.50;6.77;;;9.10;99.90;;;;;;5071095;28;20693;-65
2022/05/15 02:08:05;;;;;;;13.53;7.23;;;9.20;99.90;;;;;;5060770;28;20561;-65
2022/05/15 02:10:32;;;;;;;17.33;6.80;;;9.30;99.90;;;;;;5072425;28;20201;-65
2022/05/15 02:13:00;;;;;;;13.07;6.90;;;9.30;99.90;;;;;;5080674;28;20644;-65
2022/05/15 02:15:27;;;;;;;12.90;5.70;;;9.10;99.90;;;;;;5055205;28;20206;-65
2022/05/15 02:17:54;;;;;;;11.77;5.27;;;9.20;99.90;;;;;;5067439;28;20200;-65
2022/05/15 02:20:20;;;;;;;13.10;5.90;;;8.90;99.90;;;;;;5088599;28;20671;-65
2022/05/15 02:22:47;;;;;;;18.30;6.80;;;8.90;99.90;;;;;;5095372;28;20705;-65
2022/05/15 02:25:15;;;;;;;15.77;6.73;;;9.00;99.90;;;;;;5095314;28;20197;-65
2022/05/15 02:27:42;;;;;;;12.90;5.97;;;9.00;99.90;;;;;;5081555;28;20208;-65
2022/05/15 02:30:12;;;;;;;14.00;6.17;;;8.90;99.90;;;;;;5061824;28;20203;-65
2022/05/15 02:32:38;;;;;;;16.83;5.47;;;8.70;99.90;;;;;;5080198;28;20188;-65
2022/05/15 02:35:06;;;;;;;13.90;5.53;;;8.70;99.90;;;;;;5096299;28;20209;-65
2022/05/15 02:37:34;;;;;;;11.40;5.20;;;8.60;99.90;;;;;;5084496;28;20225;-65
2022/05/15 02:40:01;;;;;;;14.73;5.23;;;8.60;99.90;;;;;;5064883;28;20226;-65
2022/05/15 02:42:27;;;;;;;13.60;5.63;;;8.80;99.90;;;;;;5095457;28;20608;-73
2022/05/15 02:44:54;;;;;;;13.30;5.67;;;8.70;99.90;;;;;;5086288;28;20194;-74
2022/05/15 02:47:22;;;;;;;13.57;6.17;;;8.80;99.90;;;;;;5095464;28;20491;-74
2022/05/15 02:52:34;;;;;;;18.23;7.87;;;8.90;99.90;;;;;;5056520;28;20202;-74
2022/05/15 02:55:02;;;;;;;17.40;7.67;;;8.80;99.90;;;;;;5066555;28;20198;-74
2022/05/15 02:57:29;;;;;;;14.80;8.37;;;8.80;99.90;;;;;;5075606;28;20284;-74
2022/05/15 02:59:56;;;;;;;16.80;7.83;;;8.80;99.90;;;;;;5090593;28;20198;-73
2022/05/15 03:02:24;;;;;;;15.33;7.90;;;8.80;99.90;;;;;;5080310;28;20226;-74
2022/05/15 03:04:51;;;;;;;16.07;8.90;;;8.70;99.90;;;;;;5093853;28;20202;-74
2022/05/15 03:07:19;;;;;;;13.83;5.83;;;8.70;99.90;;;;;;5079273;28;20206;-74
2022/05/15 03:09:47;;;;;;;10.93;5.00;;;8.60;99.90;;;;;;5095223;28;20209;-73
2022/05/15 03:12:14;;;;;;;12.77;4.80;;;8.30;99.90;;;;;;5088942;28;20579;-73
2022/05/15 03:14:40;;;;;;;13.67;5.73;;;8.20;99.90;;;;;;5062555;28;20211;-73
2022/05/15 03:17:07;;;;;;;12.63;6.23;;;8.20;99.90;;;;;;5065606;28;20541;-73
2022/05/15 03:19:35;;;;;;;12.30;6.17;;;8.30;99.90;;;;;;5087909;28;20197;-73
2022/05/15 03:22:03;;;;;;;12.83;6.13;;;8.40;99.90;;;;;;5084478;28;20213;-73
2022/05/15 03:24:31;;;;;;;14.30;7.07;;;8.40;99.90;;;;;;5094649;28;20197;-73
2022/05/15 03:27:00;;;;;;;13.40;6.03;;;8.50;99.90;;;;;;5084554;28;20565;-73
2022/05/15 03:29:28;;;;;;;15.33;6.23;;;8.60;99.90;;;;;;5070748;28;20203;-73
2022/05/15 03:31:55;;;;;;;14.57;6.47;;;8.50;99.90;;;;;;5072414;28;20561;-73
2022/05/15 03:34:22;;;;;;;15.30;6.33;;;8.40;99.90;;;;;;5094633;28;20490;-73
2022/05/15 03:36:52;;;;;;;17.13;6.47;;;8.50;99.90;;;;;;5083664;28;20203;-73
2022/05/15 03:39:20;;;;;;;13.67;6.17;;;8.50;99.90;;;;;;5064935;28;20207;-74
2022/05/15 03:41:48;;;;;;;14.90;7.37;;;8.50;99.90;;;;;;5075588;28;20217;-73
2022/05/15 03:44:15;;;;;;;14.87;7.40;;;8.60;99.90;;;;;;5094142;28;20182;-73
2022/05/15 03:46:44;;;;;;;17.27;7.90;;;8.70;99.90;;;;;;5093835;28;20207;-74
2022/05/15 03:49:13;;;;;;;15.50;7.60;;;8.80;99.90;;;;;;5087689;28;20574;-74
2022/05/15 03:51:40;;;;;;;12.23;6.33;;;8.90;99.90;;;;;;5074549;28;20718;-73
2022/05/15 03:54:10;;;;;;;12.17;4.97;;;8.90;99.90;;;;;;5073537;28;20205;-73
2022/05/15 03:56:52;;;;;;;11.43;5.50;;;9.00;99.90;;;;;;5077596;28;20198;-73
2022/05/15 03:59:23;;;;;;;8.70;5.33;;;8.90;99.90;;;;;;5094694;28;20208;-74
2022/05/15 04:01:50;;;;;;;10.70;5.63;;;9.10;99.90;;;;;;5085767;28;20214;-73
2022/05/15 04:04:17;;;;;;;10.50;5.97;;;9.60;99.90;;;;;;5069942;28;20202;-74
2022/05/15 04:06:44;;;;;;;8.70;5.23;;;9.80;99.90;;;;;;5054186;28;20222;-74
2022/05/15 04:09:12;;;;;;;15.13;5.93;;;10.10;99.90;;;;;;5067876;28;20198;-74
2022/05/15 04:11:39;;;;;;;15.27;6.00;;;10.50;99.90;;;;;;5073230;28;20657;-74
2022/05/15 04:14:07;;;;;;;13.53;6.03;;;10.40;99.90;;;;;;5073044;28;20649;-73
2022/05/15 04:16:34;;;;;;;13.30;6.07;;;10.00;99.90;;;;;;5061557;28;20205;-74
2022/05/15 04:19:01;;;;;;;10.83;6.20;;;10.10;99.90;;;;;;5073613;28;20206;-73
2022/05/15 04:21:30;;;;;;;10.87;5.30;;;10.00;99.90;;;;;;5077785;28;20198;-73
2022/05/15 04:23:57;;;;;;;12.07;5.93;;;10.00;99.90;;;;;;5093168;28;20292;-74
2022/05/15 04:26:25;;;;;;;12.67;5.70;;;10.20;99.90;;;;;;5074843;28;20194;-73
2022/05/15 04:28:52;;;;;;;12.87;5.37;;;10.20;99.90;;;;;;5072966;28;20689;-65
2022/05/15 04:31:19;;;;;;;12.90;5.77;;;10.60;99.90;;;;;;5074978;28;20194;-65
2022/05/15 04:33:46;;;;;;;9.30;5.00;;;11.00;99.90;;;;;;5068949;28;20820;-65
2022/05/15 04:36:13;;;;;;;10.87;5.33;;;11.10;99.90;;;;;;5061510;28;20205;-65
2022/05/15 04:38:40;;;;;;;12.87;5.00;;;10.80;99.90;;;;;;5092520;28;20197;-65
2022/05/15 04:41:06;;;;;;;12.50;4.70;;;10.40;99.90;;;;;;5089548;28;20198;-73
2022/05/15 04:43:36;;;;;;;12.63;5.30;;;10.40;99.90;;;;;;5069772;28;20226;-73
2022/05/15 04:46:07;;;;;;;10.57;4.53;;;10.80;99.90;;;;;;5056767;28;20653;-73
2022/05/15 04:48:34;;;;;;;9.87;5.40;;;11.20;99.90;;;;;;5091888;28;20211;-73
2022/05/15 04:51:01;;;;;;;9.37;4.87;;;11.20;99.90;;;;;;5081168;28;20231;-73
2022/05/15 04:53:28;;;;;;;17.30;9.07;;;11.40;99.90;;;;;;5090764;28;20728;-73
2022/05/15 04:55:55;;;;;;;10.03;4.57;;;11.20;99.90;;;;;;5091551;28;20611;-74
2022/05/15 04:58:22;;;;;;;9.00;4.30;;;11.50;99.90;;;;;;5089137;28;20648;-73
2022/05/15 05:00:51;;;;;;;14.23;5.30;;;12.10;99.90;;;;;;5071696;28;20207;-73
2022/05/15 05:03:18;;;;;;;11.67;5.47;;;11.50;1.00;;;;;;5070326;28;20290;-73
2022/05/15 05:05:45;;;;;;;11.73;5.00;;;11.60;41.70;;;;;;5063182;28;20259;-73
2022/05/15 05:08:15;;;;;;;11.13;5.07;;;11.30;99.90;;;;;;5065615;28;20256;-73
2022/05/15 05:10:42;;;;;;;14.40;5.67;;;11.50;99.90;;;;;;5062629;28;20246;-73
2022/05/15 05:13:09;;;;;;;13.10;5.33;;;11.40;99.90;;;;;;5058043;28;20719;-73
2022/05/15 05:15:36;;;;;;;14.83;5.63;;;11.30;99.90;;;;;;5063554;28;20294;-73
2022/05/15 05:18:05;;;;;;;12.90;5.77;;;11.40;99.90;;;;;;5061461;28;20559;-73
2022/05/15 05:20:32;;;;;;;17.43;6.00;;;11.50;99.90;;;;;;5068468;28;20202;-73
2022/05/15 05:22:59;;;;;;;12.47;5.53;;;11.60;99.90;;;;;;5057722;28;20226;-73
2022/05/15 05:25:26;;;;;;;13.23;6.00;;;11.60;99.90;;;;;;5060566;28;20194;-74
2022/05/15 05:27:53;;;;;;;12.20;5.73;;;11.80;99.90;;;;;;5068856;28;20221;-73
2022/05/15 05:30:24;;;;;;;13.67;5.60;;;12.00;99.90;;;;;;5064084;28;20255;-74
2022/05/15 05:32:51;;;;;;;16.07;6.43;;;12.00;99.90;;;;;;5057416;28;20252;-73
2022/05/15 05:35:20;;;;;;;12.37;5.63;;;12.10;99.90;;;;;;5059558;28;20596;-73
2022/05/15 05:37:47;;;;;;;15.30;5.70;;;12.30;99.90;;;;;;5065166;28;20255;-73
2022/05/15 05:40:15;;;;;;;13.57;6.17;;;12.50;99.90;;;;;;5058223;28;20265;-73
2022/05/15 05:42:42;;;;;;;10.63;5.17;;;12.50;68.50;;;;;;5063902;28;20234;-68
2022/05/15 05:45:10;;;;;;;13.83;5.17;;;12.50;99.90;;;;;;5058589;28;20238;-68
2022/05/15 05:47:37;;;;;;;8.43;5.00;;;12.60;99.90;;;;;;5064148;28;20707;-68
2022/05/15 05:50:08;;;;;;;14.03;5.80;;;12.90;37.80;;;;;;5061081;28;20210;-68
2022/05/15 05:52:37;;;;;;;16.07;5.67;;;12.80;1.00;;;;;;5059271;28;20203;-68
2022/05/15 05:55:04;;;;;;;15.83;5.93;;;12.90;1.00;;;;;;5060818;28;21171;-68
2022/05/15 05:57:31;;;;;;;13.63;5.97;;;12.90;17.30;;;;;;5060626;28;20567;-68
2022/05/15 05:59:58;;;;;;;17.33;6.60;;;13.20;16.40;;;;;;5057094;28;20230;-68
2022/05/15 06:02:26;;;;;;;13.40;5.70;;;13.10;33.00;;;;;;5063746;28;20265;-68
2022/05/15 06:04:52;;;;;;;16.10;5.63;;;13.20;1.00;;;;;;5063319;28;20679;-68
2022/05/15 06:07:21;;;;;;;17.00;5.83;;;13.40;1.00;;;;;;5062548;28;20206;-68
2022/05/15 06:09:51;;;;;;;17.37;6.33;;;13.50;1.00;;;;;;5063395;28;20657;-68
2022/05/15 06:12:23;;;;;;;14.47;6.50;;;13.40;1.00;;;;;;5060924;28;20268;-68
2022/05/15 06:14:50;;;;;;;17.00;6.60;;;13.40;1.00;;;;;;5063977;28;20649;-68
2022/05/15 06:17:21;;;;;;;12.97;6.30;;;13.50;1.00;;;;;;5063011;28;20276;-68
2022/05/15 06:19:48;;;;;;;16.27;6.90;;;13.40;1.00;;;;;;5064536;28;20205;-68
2022/05/15 06:22:16;;;;;;;12.60;6.07;;;13.40;1.00;;;;;;5059909;28;20210;-68
2022/05/15 06:24:43;;;;;;;17.03;6.67;;;13.80;1.00;;;;;;5061886;28;20211;-68
2022/05/15 06:27:12;;;;;;;14.10;6.33;;;14.20;1.00;;;;;;5062755;28;20255;-68
2022/05/15 06:29:40;;;;;;;14.60;6.20;;;14.00;1.00;;;;;;5063727;28;20201;-68
2022/05/15 06:32:09;;;;;;;17.73;5.57;;;14.10;1.00;;;;;;5055004;28;20256;-68
2022/05/15 06:34:36;;;;;;;18.87;6.50;;;13.90;1.00;;;;;;5066540;28;20210;-68
2022/05/15 06:37:03;;;;;;;15.40;6.40;;;13.90;1.00;;;;;;5057262;28;20261;-68
2022/05/15 06:39:31;;;;;;;18.17;6.30;;;14.10;1.00;;;;;;5062556;28;20264;-68
2022/05/15 06:41:59;;;;;;;13.07;6.70;;;14.30;1.00;;;;;;5062748;28;20630;-68
2022/05/15 06:44:28;;;;;;;18.20;7.40;;;14.50;1.00;;;;;;5070533;28;20233;-68
2022/05/15 06:46:56;;;;;;;13.23;7.20;;;14.30;1.00;;;;;;5065292;28;20202;-68
2022/05/15 06:49:23;;;;;;;13.03;6.67;;;14.30;1.00;;;;;;5060502;28;20238;-68
2022/05/15 06:51:50;;;;;;;15.70;7.90;;;14.40;1.00;;;;;;5064592;28;20210;-68
2022/05/15 06:54:18;;;;;;;11.50;6.93;;;14.60;1.00;;;;;;5057011;28;20280;-68
2022/05/15 06:59:26;;;;;;;16.50;7.63;;;14.40;1.00;;;;;;5052385;28;20190;-68
2022/05/15 07:01:54;;;;;;;16.27;7.70;;;14.60;1.00;;;;;;5061692;28;20551;-68
2022/05/15 07:04:21;;;;;;;15.77;7.30;;;14.70;1.00;;;;;;5070996;28;20628;-68
2022/05/15 07:06:48;;;;;;;17.13;7.70;;;14.70;1.00;;;;;;5063845;28;20256;-68
2022/05/15 07:09:15;;;;;;;14.47;6.77;;;14.80;1.00;;;;;;5068576;28;20722;-68
2022/05/15 07:11:42;;;;;;;16.63;6.37;;;14.80;1.00;;;;;;5062989;28;20234;-68
2022/05/15 07:14:09;;;;;;;15.30;6.43;;;15.00;1.00;;;;;;5067465;28;20398;-68
2022/05/15 07:16:36;;;;;;;14.23;5.00;;;15.20;1.00;;;;;;5062812;28;20242;-68
2022/05/15 07:19:05;;;;;;;17.27;5.10;;;15.30;1.00;;;;;;5065295;28;20207;-68
2022/05/15 07:21:32;;;;;;;12.13;4.97;;;15.30;1.00;;;;;;5070447;28;20206;-68
2022/05/15 07:23:59;;;;;;;14.37;5.23;;;15.40;1.00;;;;;;5068241;28;20256;-68
2022/05/15 07:26:26;;;;;;;15.80;5.43;;;15.50;1.00;;;;;;5059645;28;20285;-68
2022/05/15 07:28:53;;;;;;;19.27;6.07;;;15.70;1.00;;;;;;5068895;28;20209;-68
2022/05/15 07:31:20;;;;;;;12.87;4.97;;;15.80;99.90;;;;;;5068732;28;20263;-68
2022/05/15 07:33:49;;;;;;;15.37;5.13;;;15.80;99.90;;;;;;5064803;28;20255;-67
2022/05/15 07:36:18;;;;;;;12.23;4.35;;;15.80;1.00;;;;;;5057473;28;20224;-68
2022/05/15 07:38:45;;;;;;;10.70;4.57;;;16.00;1.00;;;;;;5069401;28;20235;-68
2022/05/15 07:41:13;;;;;;;8.57;4.27;;;16.00;99.90;;;;;;5060932;28;20293;-68
2022/05/15 07:43:40;;;;;;;13.93;4.72;;;16.10;1.00;;;;;;5062694;28;20234;-69
2022/05/15 07:46:07;;;;;;;13.10;4.70;;;16.10;1.00;;;;;;5066758;28;20611;-68
2022/05/15 07:48:34;;;;;;;13.77;5.10;;;16.10;1.00;;;;;;5063367;28;20239;-67
2022/05/15 07:51:01;;;;;;;12.68;4.57;;;16.20;1.00;;;;;;5065037;28;20612;-67
2022/05/15 07:53:29;;;;;;;12.73;4.20;;;16.10;1.00;;;;;;5065441;28;20276;-68
2022/05/15 07:55:59;;;;;;;15.80;4.10;;;16.10;1.00;;;;;;5063581;28;20198;-68
2022/05/15 07:58:26;;;;;;;12.93;4.20;;;16.30;1.00;;;;;;5065500;28;20678;-68
2022/05/15 08:00:55;;;;;;;10.50;4.25;;;16.40;99.90;;;;;;5063176;28;20210;-68
2022/05/15 08:03:22;;;;;;;13.35;4.18;;;16.20;1.00;;;;;;5069313;28;20218;-68
2022/05/15 08:08:35;;;;;;;11.10;4.00;;;16.70;35.20;;;;;;5057520;28;20205;-68
2022/05/15 08:11:02;;;;;;;11.10;4.18;;;16.70;1.00;;;;;;5063936;28;20206;-68
2022/05/15 08:13:30;;;;;;;8.98;3.55;;;16.70;1.00;;;;;;5059331;28;20677;-68
2022/05/15 08:15:57;;;;;;;8.32;3.90;;;16.70;99.90;;;;;;5063113;28;20581;-68
2022/05/15 08:24:10;;;;;;;12.88;3.92;;;16.80;99.90;;;;;;5004723;28;20267;-69
2022/05/15 08:26:38;;;;;;;10.85;3.60;;;17.10;99.90;;;;;;5001410;28;20279;-68
2022/05/15 08:29:05;;;;;;;10.07;3.63;;;16.90;1.00;;;;;;5025348;28;20214;-68
2022/05/15 08:31:32;;;;;;;9.25;3.65;;;16.90;99.90;;;;;;5063181;28;20203;-68
2022/05/15 08:33:59;;;;;;;8.27;3.20;;;16.90;1.00;;;;;;5061912;28;20276;-68
2022/05/15 08:36:26;;;;;;;13.27;3.40;;;17.20;99.90;;;;;;5062747;28;20268;-68
2022/05/15 08:38:53;;;;;;;9.73;3.60;;;17.30;99.90;;;;;;5059970;28;20628;-68
2022/05/15 08:41:34;;;;;;;14.07;3.97;;;17.40;99.90;;;;;;5062270;28;20198;-68
2022/05/15 08:44:09;;;;;;;10.93;3.60;;;17.50;99.90;;;;;;5065115;28;20589;-68
2022/05/15 08:46:41;;;;;;;11.88;3.35;;;17.80;31.90;;;;;;5066646;28;20326;-68
2022/05/15 08:49:12;;;;;;;13.93;4.10;;;17.60;1.00;;;;;;5062298;28;20195;-68
2022/05/15 08:51:45;;;;;;;11.95;3.72;;;17.50;1.00;;;;;;5063924;28;20272;-68
2022/05/15 08:54:13;;;;;;;13.75;3.40;;;17.90;1.00;;;;;;5064028;28;20934;-68
2022/05/15 08:56:49;;;;;;;10.95;3.45;;;18.10;99.90;;;;;;5063563;28;20199;-68
2022/05/15 08:59:23;;;;;;;11.88;3.53;;;18.40;1.00;;;;;;5063553;28;20300;-68
2022/05/15 09:01:53;;;;;;;10.48;3.42;;;18.80;99.90;;;;;;5062865;28;20596;-68
2022/05/15 09:04:21;;;;;;;10.40;3.72;;;19.20;99.90;;;;;;5065280;28;20269;-69
2022/05/15 09:06:58;;;;;;;15.00;4.35;;;19.00;99.90;;;;;;5067214;28;20206;-68
2022/05/15 09:09:35;;;;;;;11.38;3.58;;;18.90;99.90;;;;;;5063451;28;20199;-72
2022/05/15 09:12:15;;;;;;;13.48;3.50;;;19.40;99.90;;;;;;5055516;28;20213;-72
2022/05/15 09:15:00;;;;;;;12.00;3.97;;;19.40;99.90;;;;;;5069470;28;20653;-72
2022/05/15 09:17:41;;;;;;;13.32;4.25;;;19.70;1.00;;;;;;5059583;28;20256;-72
2022/05/15 09:20:10;;;;;;;13.98;4.20;;;20.00;1.00;;;;;;5076524;28;20234;-72
2022/05/15 09:22:38;;;;;;;12.07;3.97;;;20.70;1.00;;;;;;5062670;28;20710;-73
2022/05/15 09:25:14;;;;;;;11.48;3.33;;;20.30;1.00;;;;;;5058722;28;20284;-73
2022/05/15 09:28:01;;;;;;;12.55;3.75;;;20.20;1.00;;;;;;5064476;28;20548;-72
2022/05/15 09:30:34;;;;;;;13.02;3.47;;;20.10;1.00;;;;;;5060681;28;20292;-72
2022/05/15 09:33:01;;;;;;;13.88;4.00;;;20.10;1.00;;;;;;5060672;28;20549;-73
2022/05/15 09:35:35;;;;;;;9.80;3.35;;;20.30;1.00;;;;;;5058033;28;20214;-73
2022/05/15 09:43:38;;;;;;;10.57;3.88;;;20.40;1.00;;;;;;5062096;28;20252;-73
2022/05/15 09:46:14;;;;;;;10.35;3.53;;;20.70;1.00;;;;;;5064245;28;20650;-72
2022/05/15 09:48:51;;;;;;;12.57;4.40;;;20.60;1.00;;;;;;5062783;28;20214;-72
2022/05/15 09:51:28;;;;;;;9.15;3.20;;;20.70;1.00;;;;;;5062475;28;20206;-73
2022/05/15 09:53:57;;;;;;;9.73;3.67;;;21.00;1.00;;;;;;5054678;28;20201;-73
2022/05/15 09:56:30;;;;;;;14.15;4.07;;;21.00;1.00;;;;;;5063625;28;20211;-73
2022/05/15 09:59:01;;;;;;;8.88;3.47;;;20.70;1.00;;;;;;5051825;28;20577;-72
2022/05/15 10:01:36;;;;;;;9.88;3.67;;;21.00;1.00;;;;;;5051611;28;20641;-73
2022/05/15 10:04:05;;;;;;;13.32;4.30;;;21.30;1.00;;;;;;5052032;28;20226;-73
2022/05/15 10:06:37;;;;;;;12.82;4.18;;;22.10;1.00;;;;;;5051164;28;20214;-73
2022/05/15 10:09:13;;;;;;;10.45;3.88;;;21.50;1.00;;;;;;5050899;28;20211;-73
2022/05/15 10:11:45;;;;;;;12.23;4.13;;;21.20;1.00;;;;;;5055892;28;20194;-73
2022/05/15 10:14:25;;;;;;;12.50;4.03;;;21.00;1.00;;;;;;5063752;28;20256;-73
2022/05/15 10:16:55;;;;;;;11.27;4.72;;;21.00;1.00;;;;;;5051304;28;20223;-73
2022/05/15 10:19:32;;;;;;;11.18;4.18;;;20.80;1.00;;;;;;5049559;28;20199;-73
2022/05/15 10:22:11;;;;;;;13.30;4.65;;;21.10;1.00;;;;;;5050144;28;20656;-72
2022/05/15 10:24:43;;;;;;;9.65;3.92;;;21.00;1.00;;;;;;5051111;28;20226;-72
2022/05/15 10:27:15;;;;;;;12.90;4.82;;;21.20;1.00;;;;;;5049591;28;20221;-73
2022/05/15 10:29:50;;;;;;;11.30;3.90;;;21.50;1.00;;;;;;5050097;28;20203;-73
2022/05/15 10:32:23;;;;;;;11.57;4.45;;;21.60;1.00;;;;;;5050527;28;20195;-73
2022/05/15 10:34:50;;;;;;;12.98;5.03;;;21.20;1.00;;;;;;5050772;28;20217;-72
2022/05/15 10:37:31;;;;;;;10.75;4.45;;;21.40;1.00;;;;;;5050736;28;20288;-73
2022/05/15 10:40:09;;;;;;;10.73;4.35;;;21.10;1.00;;;;;;5051996;28;20672;-72
2022/05/15 10:42:45;;;;;;;10.52;4.10;;;21.50;1.00;;;;;;5053620;28;20657;-72
2022/05/15 10:45:21;;;;;;;9.45;3.22;;;21.50;1.00;;;;;;5059097;28;20275;-72
2022/05/15 10:48:02;;;;;;;9.40;3.60;;;21.40;1.00;;;;;;5065303;28;20209;-72
2022/05/15 10:50:40;;;;;;;12.88;4.43;;;21.70;99.90;;;;;;5071051;28;20198;-73
2022/05/15 10:59:45;;;;;;;14.93;4.63;;;22.40;99.90;;;;;;4985758;28;20228;-73
2022/05/15 11:02:36;;;;;;;14.68;4.47;;;21.60;99.90;;;;;;5060777;28;20197;-73
2022/05/15 11:05:10;;;;;;;12.50;4.00;;;21.50;99.90;;;;;;5074138;28;20262;-73
2022/05/15 11:07:43;;;;;;;10.73;3.30;;;22.30;99.90;;;;;;5056554;28;20234;-73
2022/05/15 11:10:18;;;;;;;10.93;3.33;;;22.30;99.90;;;;;;5069953;28;20612;-73
2022/05/15 11:12:54;;;;;;;11.70;3.97;;;22.40;99.90;;;;;;5070752;28;20727;-73
2022/05/15 11:15:37;;;;;;;12.65;3.80;;;22.20;99.90;;;;;;5075760;28;20581;-73
2022/05/15 11:18:19;;;;;;;9.38;3.45;;;22.60;99.90;;;;;;5064309;28;20210;-73
2022/05/15 11:20:50;;;;;;;7.90;3.50;;;22.20;99.90;;;;;;5066997;28;20198;-73
2022/05/15 11:23:23;;;;;;;12.55;4.20;;;22.20;99.90;;;;;;5064835;28;20664;-73
2022/05/15 11:25:56;;;;;;;10.77;3.70;;;22.50;99.90;;;;;;5061813;28;20272;-73
2022/05/15 11:28:30;;;;;;;11.27;4.15;;;22.30;99.90;;;;;;5062446;28;20646;-73
2022/05/15 11:31:03;;;;;;;10.75;3.28;;;22.20;99.90;;;;;;5058746;28;20270;-73
2022/05/15 11:33:49;;;;;;;10.32;4.15;;;22.30;99.90;;;;;;5066156;28;20199;-73
2022/05/15 11:36:39;;;;;;;14.45;4.05;;;22.00;99.90;;;;;;5059635;28;20206;-73
2022/05/15 11:39:24;;;;;;;8.10;3.75;;;22.30;99.90;;;;;;5066365;28;20214;-73
2022/05/15 11:42:17;;;;;;;10.05;3.55;;;22.30;99.90;;;;;;5065539;28;20236;-73
2022/05/15 11:44:46;;;;;;;10.77;3.55;;;22.20;99.90;;;;;;5063762;28;20591;-72
2022/05/15 11:47:34;;;;;;;11.32;3.92;;;22.30;99.90;;;;;;5059821;28;20206;-73
2022/05/15 11:50:15;;;;;;;10.73;3.97;;;22.30;99.90;;;;;;5070509;28;20202;-72
2022/05/15 11:53:01;;;;;;;13.05;4.18;;;22.00;99.90;;;;;;5066849;28;20233;-72
2022/05/15 11:55:47;;;;;;;10.00;3.60;;;22.20;99.90;;;;;;5052639;28;20261;-72
2022/05/15 11:58:41;;;;;;;11.32;3.55;;;21.90;99.90;;;;;;5062967;28;20289;-72
2022/05/15 12:01:19;;;;;;;9.55;3.53;;;21.80;99.90;;;;;;5050512;28;20213;-73
2022/05/15 12:03:51;;;;;;;10.88;3.75;;;22.90;99.90;;;;;;5052423;28;20199;-73
2022/05/15 12:06:23;;;;;;;13.52;4.10;;;22.80;99.90;;;;;;5053581;28;20199;-73
2022/05/15 12:08:54;;;;;;;10.90;3.22;;;22.80;99.90;;;;;;5062718;28;20257;-73
2022/05/15 12:11:34;;;;;;;10.43;3.78;;;22.10;99.90;;;;;;5058604;28;20230;-73
2022/05/15 12:14:35;;;;;;;7.78;3.40;;;22.20;99.90;;;;;;5057144;28;20214;-73
2022/05/15 12:17:16;;;;;;;10.57;3.33;;;22.50;99.90;;;;;;5066347;28;20280;-73
2022/05/15 12:19:46;;;;;;;11.57;3.80;;;22.40;99.90;;;;;;5065323;28;20578;-73
2022/05/15 12:22:16;;;;;;;8.90;3.45;;;22.50;99.90;;;;;;5060946;28;20568;-73
2022/05/15 12:24:48;;;;;;;9.73;3.60;;;22.30;99.90;;;;;;5070475;28;20727;-73
2022/05/15 12:27:24;;;;;;;11.95;3.55;;;22.30;99.90;;;;;;5057345;28;20207;-73
2022/05/15 12:30:15;;;;;;;9.70;3.90;;;22.40;99.90;;;;;;5066404;28;20202;-72
2022/05/15 12:32:46;;;;;;;9.88;3.53;;;23.30;99.90;;;;;;5061108;28;20260;-73
2022/05/15 12:35:16;;;;;;;7.70;3.05;;;23.30;99.90;;;;;;5058781;28;20219;-73
2022/05/15 12:37:57;;;;;;;7.70;3.40;;;23.50;99.90;;;;;;5059086;28;20206;-73
2022/05/15 12:40:31;;;;;;;8.77;3.03;;;22.40;99.90;;;;;;5061238;28;20248;-73
2022/05/15 12:42:59;;;;;;;8.30;3.10;;;22.70;99.90;;;;;;5060815;28;20300;-73
2022/05/15 12:45:26;;;;;;;8.70;3.13;;;22.50;99.90;;;;;;5057193;28;20219;-73
2022/05/15 12:48:08;;;;;;;5.95;2.70;;;22.50;99.90;;;;;;5064526;28;20272;-73
2022/05/15 12:50:48;;;;;;;6.53;3.08;;;22.50;99.90;;;;;;5064719;28;20248;-72
2022/05/15 12:53:22;;;;;;;10.40;3.10;;;22.80;99.90;;;;;;5065027;28;20198;-72
2022/05/15 12:55:50;;;;;;;9.07;3.22;;;22.40;99.90;;;;;;5055494;28;20687;-73
2022/05/15 12:58:30;;;;;;;8.23;2.85;;;22.70;99.90;;;;;;5058654;28;20209;-72
2022/05/15 13:00:57;;;;;;;29.92;4.60;;;22.70;99.90;;;;;;5070619;28;20198;-73
2022/05/15 13:03:24;;;;;;;8.80;2.80;;;22.60;99.90;;;;;;5070264;28;20595;-72
2022/05/15 13:05:55;;;;;;;7.40;2.90;;;22.40;99.90;;;;;;5055232;28;20230;-73
2022/05/15 13:08:25;;;;;;;7.68;3.38;;;22.10;99.90;;;;;;5051980;28;20199;-72
2022/05/15 13:10:55;;;;;;;10.18;3.35;;;22.20;99.90;;;;;;5058291;28;20645;-72
2022/05/15 13:13:25;;;;;;;7.82;2.75;;;22.50;99.90;;;;;;5058213;28;20574;-73
2022/05/15 13:15:56;;;;;;;10.18;3.10;;;22.50;99.90;;;;;;5061602;28;20290;-73
2022/05/15 13:18:26;;;;;;;7.00;2.97;;;22.80;99.90;;;;;;5062436;28;20228;-73
2022/05/15 13:20:56;;;;;;;7.68;2.97;;;23.10;99.90;;;;;;5061392;28;20198;-73
2022/05/15 13:23:29;;;;;;;10.38;3.58;;;22.50;99.90;;;;;;5062025;28;20289;-73
2022/05/15 13:25:58;;;;;;;9.20;3.42;;;22.50;99.90;;;;;;5055826;28;20752;-73